Time;durP1;ratioP1;P1;durP2;ratioP2;P2;SDS_P1;SDS_P2;PMS_P1;PMS_P2;Temp;Humidity;BMP_temperature;BMP_pressure;BME280_temperature;BME280_humidity;BME280_pressure;Samples;Min_cycle;Max_cycle;Signal;HPM_P1;HPM_P2
2022/07/30 00:02:09;;;;;;;6.77;5.10;;;;;;;;;;5056121;28;20202;-69
2022/07/30 00:04:35;;;;;;;8.43;5.10;;;;;;;;;;5055967;28;20178;-69
2022/07/30 00:07:03;;;;;;;8.00;5.60;;;;;;;;;;5073901;28;20296;-69
2022/07/30 00:09:29;;;;;;;10.43;5.60;;;;;;;;;;5055944;28;20725;-69
2022/07/30 00:11:55;;;;;;;8.23;5.23;;;;;;;;;;5056041;28;20209;-69
2022/07/30 00:14:21;;;;;;;7.13;5.33;;;;;;;;;;5055971;28;20205;-70
2022/07/30 00:16:47;;;;;;;5.43;4.93;;;;;;;;;;5055974;28;20616;-69
2022/07/30 00:19:13;;;;;;;9.50;5.23;;;;;;;;;;5055832;28;20201;-69
2022/07/30 00:21:39;;;;;;;8.13;5.60;;;;;;;;;;5055699;28;20583;-69
2022/07/30 00:24:05;;;;;;;7.57;5.00;;;;;;;;;;5055693;28;20174;-69
2022/07/30 00:26:31;;;;;;;10.33;5.40;;;;;;;;;;5055486;28;20177;-69
2022/07/30 00:28:57;;;;;;;5.90;5.30;;;;;;;;;;5055474;28;20194;-69
2022/07/30 00:31:23;;;;;;;6.27;4.90;;;;;;;;;;5055545;28;20189;-69
2022/07/30 00:33:49;;;;;;;9.50;5.37;;;;;;;;;;5055540;28;20213;-69
2022/07/30 00:36:15;;;;;;;11.40;5.67;;;;;;;;;;5073738;28;20178;-70
2022/07/30 00:38:41;;;;;;;7.30;6.10;;;;;;;;;;5055242;28;20677;-69
2022/07/30 00:41:07;;;;;;;8.03;6.17;;;;;;;;;;5055448;28;20227;-69
2022/07/30 00:43:33;;;;;;;6.80;5.53;;;;;;;;;;5055423;28;20224;-69
2022/07/30 00:45:59;;;;;;;7.00;6.23;;;;;;;;;;5055438;28;20170;-69
2022/07/30 00:48:25;;;;;;;9.10;6.20;;;;;;;;;;5055254;28;20184;-68
2022/07/30 00:50:51;;;;;;;8.00;6.53;;;;;;;;;;5055231;28;20182;-69
2022/07/30 00:53:17;;;;;;;9.97;8.23;;;;;;;;;;5056082;28;20192;-69
2022/07/30 00:55:43;;;;;;;9.90;7.80;;;;;;;;;;5073157;28;20195;-69
2022/07/30 00:58:09;;;;;;;10.33;6.27;;;;;;;;;;5055316;28;20204;-69
2022/07/30 01:00:35;;;;;;;8.83;6.70;;;;;;;;;;5055016;28;20572;-69
2022/07/30 01:03:01;;;;;;;10.00;6.50;;;;;;;;;;5055148;28;20181;-69
2022/07/30 01:05:27;;;;;;;7.70;6.30;;;;;;;;;;5073438;28;20205;-70
2022/07/30 01:07:52;;;;;;;10.43;6.53;;;;;;;;;;5073244;28;20223;-70
2022/07/30 01:10:18;;;;;;;12.10;6.57;;;;;;;;;;5073024;28;20252;-69
2022/07/30 01:12:45;;;;;;;10.67;7.33;;;;;;;;;;5073168;28;20178;-69
2022/07/30 01:15:11;;;;;;;9.10;7.53;;;;;;;;;;5055071;28;20192;-70
2022/07/30 01:17:37;;;;;;;10.53;7.77;;;;;;;;;;5055138;28;20186;-69
2022/07/30 01:20:09;;;;;;;9.77;7.70;;;;;;;;;;5073019;28;20233;-69
2022/07/30 01:22:51;;;;;;;8.20;7.40;;;;;;;;;;5073343;28;20734;-70
2022/07/30 01:25:42;;;;;;;10.23;8.33;;;;;;;;;;5073419;28;20162;-69
2022/07/30 01:28:11;;;;;;;10.63;7.90;;;;;;;;;;5073052;28;20172;-69
2022/07/30 01:30:39;;;;;;;9.77;7.90;;;;;;;;;;5072944;28;20268;-69
2022/07/30 01:33:05;;;;;;;11.07;7.73;;;;;;;;;;5072874;28;20192;-69
2022/07/30 01:35:32;;;;;;;12.27;8.43;;;;;;;;;;5054952;28;20213;-70
2022/07/30 01:37:59;;;;;;;8.27;7.07;;;;;;;;;;5054956;28;20184;-69
2022/07/30 01:40:26;;;;;;;8.03;7.10;;;;;;;;;;5072788;28;20208;-69
2022/07/30 01:42:53;;;;;;;13.83;7.60;;;;;;;;;;5072854;28;20186;-69
2022/07/30 01:45:21;;;;;;;10.47;7.57;;;;;;;;;;5072783;28;20535;-70
2022/07/30 01:47:47;;;;;;;12.90;8.10;;;;;;;;;;5072783;28;20634;-69
2022/07/30 01:50:14;;;;;;;9.97;7.03;;;;;;;;;;5072798;28;20255;-70
2022/07/30 01:52:43;;;;;;;8.23;6.93;;;;;;;;;;5072753;28;20551;-70
2022/07/30 01:55:10;;;;;;;8.73;7.80;;;;;;;;;;5054724;28;20188;-69
2022/07/30 01:57:36;;;;;;;10.53;7.00;;;;;;;;;;5072990;28;20558;-70
2022/07/30 02:00:04;;;;;;;10.03;7.00;;;;;;;;;;5073100;28;20212;-69
2022/07/30 02:02:30;;;;;;;8.77;7.87;;;;;;;;;;5072643;28;20281;-70
2022/07/30 02:04:56;;;;;;;8.07;7.27;;;;;;;;;;5072607;28;20315;-70
2022/07/30 02:07:31;;;;;;;8.37;7.57;;;;;;;;;;5072633;28;20189;-70
2022/07/30 02:10:05;;;;;;;9.63;7.87;;;;;;;;;;5072599;28;20193;-69
2022/07/30 02:12:33;;;;;;;16.37;8.60;;;;;;;;;;5072868;28;20173;-69
2022/07/30 02:15:02;;;;;;;10.57;8.67;;;;;;;;;;5072544;28;20646;-70
2022/07/30 02:17:29;;;;;;;11.90;8.00;;;;;;;;;;5072544;28;20543;-70
2022/07/30 02:19:56;;;;;;;13.60;8.60;;;;;;;;;;5056864;28;20232;-70
2022/07/30 02:22:23;;;;;;;10.27;7.67;;;;;;;;;;5076322;28;20240;-70
2022/07/30 02:24:50;;;;;;;10.23;8.33;;;;;;;;;;5076316;28;20182;-70
2022/07/30 02:27:19;;;;;;;9.43;8.53;;;;;;;;;;5075980;28;20542;-70
2022/07/30 02:29:46;;;;;;;11.37;8.73;;;;;;;;;;5076134;28;20251;-69
2022/07/30 02:32:14;;;;;;;12.17;8.70;;;;;;;;;;5057868;28;20186;-69
2022/07/30 02:34:42;;;;;;;9.30;7.93;;;;;;;;;;5057769;28;20192;-70
2022/07/30 02:37:11;;;;;;;10.37;7.80;;;;;;;;;;5075748;28;20634;-70
2022/07/30 02:39:37;;;;;;;10.37;8.50;;;;;;;;;;5057539;28;20276;-69
2022/07/30 02:42:04;;;;;;;14.10;8.43;;;;;;;;;;5057654;28;20554;-69
2022/07/30 02:44:30;;;;;;;9.07;8.17;;;;;;;;;;5075573;28;20174;-69
2022/07/30 02:46:57;;;;;;;9.00;8.10;;;;;;;;;;5075565;28;20178;-69
2022/07/30 02:49:23;;;;;;;10.30;8.47;;;;;;;;;;5075612;28;20251;-69
2022/07/30 02:51:50;;;;;;;10.50;8.60;;;;;;;;;;5057574;28;20181;-69
2022/07/30 02:54:17;;;;;;;12.07;8.73;;;;;;;;;;5075570;28;20637;-70
2022/07/30 02:56:45;;;;;;;10.03;8.97;;;;;;;;;;5075660;28;20177;-70
2022/07/30 02:59:12;;;;;;;9.07;7.80;;;;;;;;;;5057428;28;20669;-69
2022/07/30 03:01:38;;;;;;;8.67;7.77;;;;;;;;;;5075617;28;20254;-69
2022/07/30 03:04:05;;;;;;;9.27;8.27;;;;;;;;;;5057382;28;20239;-70
2022/07/30 03:06:31;;;;;;;11.97;8.67;;;;;;;;;;5057322;28;20200;-70
2022/07/30 03:08:57;;;;;;;9.47;8.50;;;;;;;;;;5057132;28;20245;-69
2022/07/30 03:11:24;;;;;;;9.87;8.47;;;;;;;;;;5057144;28;20189;-69
2022/07/30 03:13:50;;;;;;;9.03;8.10;;;;;;;;;;5057208;28;20273;-70
2022/07/30 03:16:16;;;;;;;10.10;8.33;;;;;;;;;;5075074;28;20190;-70
2022/07/30 03:18:43;;;;;;;9.73;8.70;;;;;;;;;;5057087;28;20296;-69
2022/07/30 03:21:10;;;;;;;10.43;9.33;;;;;;;;;;5075332;28;20197;-70
2022/07/30 03:23:36;;;;;;;9.47;8.47;;;;;;;;;;5056925;28;20638;-69
2022/07/30 03:26:03;;;;;;;10.33;9.33;;;;;;;;;;5057078;28;20192;-70
2022/07/30 03:28:31;;;;;;;9.50;8.50;;;;;;;;;;5075368;28;20202;-69
2022/07/30 03:30:58;;;;;;;11.33;9.63;;;;;;;;;;5055683;28;20193;-69
2022/07/30 03:33:25;;;;;;;11.50;9.80;;;;;;;;;;5074687;28;20185;-70
2022/07/30 03:35:51;;;;;;;16.37;10.33;;;;;;;;;;5074909;28;20209;-70
2022/07/30 03:38:18;;;;;;;15.67;10.93;;;;;;;;;;5074632;28;20186;-70
2022/07/30 03:40:45;;;;;;;14.27;9.87;;;;;;;;;;5074300;28;20214;-69
2022/07/30 03:43:11;;;;;;;13.00;10.33;;;;;;;;;;5056597;28;20179;-70
2022/07/30 03:45:40;;;;;;;11.30;10.20;;;;;;;;;;5056568;28;20234;-70
2022/07/30 03:48:07;;;;;;;12.13;10.23;;;;;;;;;;5074423;28;20516;-70
2022/07/30 03:50:34;;;;;;;13.23;10.13;;;;;;;;;;5074479;28;20198;-69
2022/07/30 03:53:02;;;;;;;13.20;10.33;;;;;;;;;;5056569;28;20648;-69
2022/07/30 03:55:28;;;;;;;11.20;10.13;;;;;;;;;;5074302;28;20661;-69
2022/07/30 03:57:54;;;;;;;12.37;10.77;;;;;;;;;;5056257;28;20177;-70
2022/07/30 04:00:20;;;;;;;13.50;10.13;;;;;;;;;;5056461;28;20200;-69
2022/07/30 04:02:46;;;;;;;12.40;10.90;;;;;;;;;;5074487;28;20193;-69
2022/07/30 04:05:13;;;;;;;13.53;11.13;;;;;;;;;;5074148;28;20278;-70
2022/07/30 04:07:39;;;;;;;14.73;10.97;;;;;;;;;;5073954;28;20184;-69
2022/07/30 04:10:05;;;;;;;13.87;11.57;;;;;;;;;;5073932;28;20674;-69
2022/07/30 04:12:31;;;;;;;13.20;11.43;;;;;;;;;;5073895;28;20173;-70
2022/07/30 04:14:57;;;;;;;13.50;11.00;;;;;;;;;;5055898;28;20177;-70
2022/07/30 04:17:33;;;;;;;15.23;11.40;;;;;;;;;;5055924;28;20185;-69
2022/07/30 04:20:07;;;;;;;13.33;11.03;;;;;;;;;;5073660;28;20215;-70
2022/07/30 04:22:34;;;;;;;16.80;12.63;;;;;;;;;;5073707;28;20300;-70
2022/07/30 04:25:01;;;;;;;13.13;11.73;;;;;;;;;;5055759;28;20181;-69
2022/07/30 04:27:28;;;;;;;15.30;12.57;;;;;;;;;;5073626;28;20646;-69
2022/07/30 04:29:54;;;;;;;14.17;11.97;;;;;;;;;;5073598;28;20247;-70
2022/07/30 04:32:20;;;;;;;15.90;12.87;;;;;;;;;;5073572;28;20699;-69
2022/07/30 04:34:47;;;;;;;16.43;13.73;;;;;;;;;;5073650;28;20213;-69
2022/07/30 04:37:14;;;;;;;19.77;15.90;;;;;;;;;;5074238;28;20189;-70
2022/07/30 04:39:40;;;;;;;21.27;16.27;;;;;;;;;;5073361;28;20209;-70
2022/07/30 04:42:06;;;;;;;19.13;15.57;;;;;;;;;;5073140;28;20688;-69
2022/07/30 04:44:33;;;;;;;24.20;17.93;;;;;;;;;;5055479;28;20661;-69
2022/07/30 04:46:59;;;;;;;26.77;18.97;;;;;;;;;;5055516;28;20227;-69
2022/07/30 04:49:26;;;;;;;25.23;18.40;;;;;;;;;;5073236;28;20664;-69
2022/07/30 04:51:52;;;;;;;25.43;19.40;;;;;;;;;;5073597;28;20182;-70
2022/07/30 04:54:20;;;;;;;27.67;19.63;;;;;;;;;;5073357;28;20639;-70
2022/07/30 04:56:46;;;;;;;25.93;19.33;;;;;;;;;;5073278;28;20638;-70
2022/07/30 04:59:12;;;;;;;29.10;21.00;;;;;;;;;;5055304;28;20263;-70
2022/07/30 05:01:40;;;;;;;26.80;20.40;;;;;;;;;;5073475;28;20209;-71
2022/07/30 05:04:06;;;;;;;35.07;21.60;;;;;;;;;;5055653;28;20608;-71
2022/07/30 05:06:33;;;;;;;31.17;22.83;;;;;;;;;;5074443;28;20174;-71
2022/07/30 05:08:59;;;;;;;34.77;22.83;;;;;;;;;;5055927;28;20681;-70
2022/07/30 05:11:25;;;;;;;32.43;22.50;;;;;;;;;;5073500;28;20199;-70
2022/07/30 05:13:51;;;;;;;35.77;21.73;;;;;;;;;;5073602;28;20264;-70
2022/07/30 05:16:17;;;;;;;31.23;21.77;;;;;;;;;;5073155;28;20173;-71
2022/07/30 05:18:44;;;;;;;36.70;24.03;;;;;;;;;;5074251;28;20197;-69
2022/07/30 05:21:10;;;;;;;37.43;25.37;;;;;;;;;;5073289;28;20571;-70
2022/07/30 05:23:36;;;;;;;36.67;24.07;;;;;;;;;;5073364;28;20185;-70
2022/07/30 05:26:02;;;;;;;35.20;23.73;;;;;;;;;;5055191;28;20177;-70
2022/07/30 05:28:28;;;;;;;32.00;24.33;;;;;;;;;;5072961;28;20177;-69
2022/07/30 05:30:54;;;;;;;33.33;22.17;;;;;;;;;;5073094;28;20260;-70
2022/07/30 05:33:21;;;;;;;35.97;22.77;;;;;;;;;;5073010;28;20532;-70
2022/07/30 05:35:48;;;;;;;33.13;23.00;;;;;;;;;;5073539;28;20231;-70
2022/07/30 05:38:14;;;;;;;27.53;20.13;;;;;;;;;;5054957;28;20249;-70
2022/07/30 05:40:40;;;;;;;23.30;18.43;;;;;;;;;;5072725;28;20712;-70
2022/07/30 05:43:06;;;;;;;24.33;19.70;;;;;;;;;;5072921;28;20170;-71
2022/07/30 05:45:32;;;;;;;21.90;17.97;;;;;;;;;;5055084;28;20181;-70
2022/07/30 05:47:59;;;;;;;21.87;17.90;;;;;;;;;;5072845;28;20178;-70
2022/07/30 05:50:25;;;;;;;21.57;17.80;;;;;;;;;;5072776;28;20221;-70
2022/07/30 05:52:51;;;;;;;25.63;19.70;;;;;;;;;;5072695;28;20183;-69
2022/07/30 05:55:17;;;;;;;34.27;20.40;;;;;;;;;;5077280;28;20189;-69
2022/07/30 05:57:43;;;;;;;28.97;21.43;;;;;;;;;;5058566;28;20225;-70
2022/07/30 06:00:10;;;;;;;31.17;22.40;;;;;;;;;;5058598;28;20224;-70
2022/07/30 06:02:38;;;;;;;30.40;22.50;;;;;;;;;;5076265;28;20271;-70
2022/07/30 06:05:04;;;;;;;30.97;23.13;;;;;;;;;;5076326;28;20178;-70
2022/07/30 06:07:30;;;;;;;31.13;23.93;;;;;;;;;;5058327;28;20597;-70
2022/07/30 06:09:58;;;;;;;31.80;23.90;;;;;;;;;;5058383;28;20193;-70
2022/07/30 06:12:25;;;;;;;27.93;22.63;;;;;;;;;;5058164;28;20178;-70
2022/07/30 06:14:51;;;;;;;28.67;23.00;;;;;;;;;;5058342;28;20268;-70
2022/07/30 06:17:17;;;;;;;26.87;22.53;;;;;;;;;;5058231;28;20623;-70
2022/07/30 06:19:43;;;;;;;30.17;22.47;;;;;;;;;;5057945;28;20230;-70
2022/07/30 06:22:09;;;;;;;30.33;23.07;;;;;;;;;;5075821;28;20194;-70
2022/07/30 06:24:35;;;;;;;29.33;22.83;;;;;;;;;;5075990;28;20178;-69
2022/07/30 06:27:01;;;;;;;25.23;21.40;;;;;;;;;;5076221;28;20204;-70
2022/07/30 06:29:27;;;;;;;26.80;21.03;;;;;;;;;;5075969;28;20225;-70
2022/07/30 06:31:53;;;;;;;27.70;20.87;;;;;;;;;;5076124;28;20268;-70
2022/07/30 06:34:19;;;;;;;26.00;20.27;;;;;;;;;;5075900;28;20265;-69
2022/07/30 06:36:45;;;;;;;27.93;21.80;;;;;;;;;;5075811;28;20759;-70
2022/07/30 06:39:10;;;;;;;28.90;20.97;;;;;;;;;;5075724;28;20292;-70
2022/07/30 06:41:37;;;;;;;25.90;19.17;;;;;;;;;;5075700;28;20205;-69
2022/07/30 06:44:03;;;;;;;23.17;18.10;;;;;;;;;;5057825;28;20178;-70
2022/07/30 06:46:29;;;;;;;19.80;17.13;;;;;;;;;;5057698;28;20182;-70
2022/07/30 06:48:55;;;;;;;17.87;15.97;;;;;;;;;;5075591;28;20225;-70
2022/07/30 06:51:20;;;;;;;21.87;16.87;;;;;;;;;;5057689;28;20239;-70
2022/07/30 06:53:47;;;;;;;18.27;15.93;;;;;;;;;;5075690;28;20182;-70
2022/07/30 06:56:13;;;;;;;18.17;16.23;;;;;;;;;;5075675;28;20178;-70
2022/07/30 06:58:39;;;;;;;25.53;18.43;;;;;;;;;;5057782;28;20206;-69
2022/07/30 07:01:05;;;;;;;22.27;16.93;;;;;;;;;;5058806;28;20248;-70
2022/07/30 07:03:31;;;;;;;19.83;16.13;;;;;;;;;;5075487;28;20177;-70
2022/07/30 07:05:57;;;;;;;19.03;15.10;;;;;;;;;;5075210;28;20178;-70
2022/07/30 07:08:23;;;;;;;16.63;13.43;;;;;;;;;;5057723;28;20201;-70
2022/07/30 07:10:49;;;;;;;19.30;14.37;;;;;;;;;;5057963;28;20177;-70
2022/07/30 07:13:15;;;;;;;16.23;13.57;;;;;;;;;;5057916;28;20274;-70
2022/07/30 07:15:41;;;;;;;16.53;12.30;;;;;;;;;;5076261;28;20182;-70
2022/07/30 07:18:07;;;;;;;14.87;13.10;;;;;;;;;;5075814;28;20595;-70
2022/07/30 07:20:33;;;;;;;16.57;13.30;;;;;;;;;;5057322;28;20288;-70
2022/07/30 07:23:00;;;;;;;16.80;13.03;;;;;;;;;;5057033;28;20287;-70
2022/07/30 07:25:26;;;;;;;19.17;13.97;;;;;;;;;;5057191;28;20630;-70
2022/07/30 07:27:52;;;;;;;14.63;12.80;;;;;;;;;;5074896;28;20181;-70
2022/07/30 07:30:18;;;;;;;15.77;13.33;;;;;;;;;;5075003;28;20610;-70
2022/07/30 07:32:43;;;;;;;18.30;13.80;;;;;;;;;;5074901;28;20239;-70
2022/07/30 07:35:11;;;;;;;13.97;12.43;;;;;;;;;;5075277;28;20182;-69
2022/07/30 07:37:37;;;;;;;16.17;13.20;;;;;;;;;;5056941;28;20182;-70
2022/07/30 07:40:03;;;;;;;15.33;12.10;;;;;;;;;;5074575;28;20704;-70
2022/07/30 07:42:29;;;;;;;14.70;11.50;;;;;;;;;;5074568;28;20636;-70
2022/07/30 07:44:55;;;;;;;13.87;11.43;;;;;;;;;;5074900;28;20169;-69
2022/07/30 07:47:21;;;;;;;15.40;11.63;;;;;;;;;;5074424;28;20170;-70
2022/07/30 07:49:47;;;;;;;17.57;12.43;;;;;;;;;;5074498;28;20666;-70
2022/07/30 07:52:15;;;;;;;18.20;11.93;;;;;;;;;;5056640;28;20196;-70
2022/07/30 07:54:41;;;;;;;18.57;11.93;;;;;;;;;;5056438;28;20190;-70
2022/07/30 07:57:07;;;;;;;17.07;13.17;;;;;;;;;;5056343;28;20553;-70
2022/07/30 07:59:34;;;;;;;16.20;12.70;;;;;;;;;;5074079;28;20201;-69
2022/07/30 08:02:00;;;;;;;15.33;12.73;;;;;;;;;;5074026;28;20203;-69
2022/07/30 08:04:26;;;;;;;19.00;12.53;;;;;;;;;;5074278;28;20249;-70
2022/07/30 08:06:51;;;;;;;13.20;11.90;;;;;;;;;;5073900;28;20266;-70
2022/07/30 08:09:17;;;;;;;15.77;12.90;;;;;;;;;;5055975;28;20198;-70
2022/07/30 08:11:43;;;;;;;13.73;12.20;;;;;;;;;;5055974;28;20235;-70
2022/07/30 08:14:09;;;;;;;18.33;12.90;;;;;;;;;;5074087;28;20178;-70
2022/07/30 08:16:35;;;;;;;14.23;12.40;;;;;;;;;;5073608;28;20184;-70
2022/07/30 08:19:01;;;;;;;13.50;12.07;;;;;;;;;;5055755;28;20202;-70
2022/07/30 08:21:27;;;;;;;17.90;13.67;;;;;;;;;;5074172;28;20738;-70
2022/07/30 08:23:53;;;;;;;17.47;13.03;;;;;;;;;;5055713;28;20182;-70
2022/07/30 08:26:19;;;;;;;15.20;11.30;;;;;;;;;;5073354;28;20178;-71
2022/07/30 08:28:45;;;;;;;12.63;10.93;;;;;;;;;;5073628;28;20194;-70
2022/07/30 08:31:11;;;;;;;14.80;11.50;;;;;;;;;;5073564;28;20287;-70
2022/07/30 08:33:37;;;;;;;14.37;10.07;;;;;;;;;;5055638;28;20178;-70
2022/07/30 08:36:03;;;;;;;10.60;9.60;;;;;;;;;;5073361;28;20181;-70
2022/07/30 08:38:29;;;;;;;12.07;9.20;;;;;;;;;;5055109;28;20193;-71
2022/07/30 08:40:55;;;;;;;11.33;9.87;;;;;;;;;;5073363;28;20170;-71
2022/07/30 08:43:24;;;;;;;12.10;10.03;;;;;;;;;;5055096;28;20181;-71
2022/07/30 08:45:51;;;;;;;11.20;9.20;;;;;;;;;;5073259;28;20184;-70
2022/07/30 08:48:21;;;;;;;12.27;9.17;;;;;;;;;;5073088;28;20219;-70
2022/07/30 08:50:47;;;;;;;15.03;10.03;;;;;;;;;;5055069;28;20197;-70
2022/07/30 08:53:13;;;;;;;12.47;9.50;;;;;;;;;;5073248;28;20589;-70
2022/07/30 08:55:39;;;;;;;10.83;8.57;;;;;;;;;;5055118;28;20174;-70
2022/07/30 08:58:06;;;;;;;10.77;9.30;;;;;;;;;;5072970;28;20240;-70
2022/07/30 09:00:32;;;;;;;12.97;9.13;;;;;;;;;;5054879;28;20692;-70
2022/07/30 09:02:59;;;;;;;12.03;8.47;;;;;;;;;;5072952;28;20625;-70
2022/07/30 09:05:25;;;;;;;12.10;8.40;;;;;;;;;;5072995;28;20644;-70
2022/07/30 09:07:51;;;;;;;11.03;8.27;;;;;;;;;;5073005;28;20182;-71
2022/07/30 09:10:17;;;;;;;11.03;8.07;;;;;;;;;;5072926;28;20213;-70
2022/07/30 09:12:44;;;;;;;9.67;6.90;;;;;;;;;;5072966;28;20188;-70
2022/07/30 09:15:14;;;;;;;7.10;6.20;;;;;;;;;;5073526;28;20641;-70
2022/07/30 09:17:47;;;;;;;10.60;7.03;;;;;;;;;;5055012;28;20736;-70
2022/07/30 09:20:13;;;;;;;11.83;6.67;;;;;;;;;;5073199;28;20232;-70
2022/07/30 09:22:41;;;;;;;6.43;5.83;;;;;;;;;;5073160;28;20693;-70
2022/07/30 09:25:07;;;;;;;8.23;6.37;;;;;;;;;;5073231;28;20196;-70
2022/07/30 09:27:44;;;;;;;11.13;7.03;;;;;;;;;;5054848;28;20227;-70
2022/07/30 09:30:10;;;;;;;8.83;6.33;;;;;;;;;;5058030;28;20288;-71
2022/07/30 09:32:52;;;;;;;8.37;5.23;;;;;;;;;;5076979;28;20177;-70
2022/07/30 09:35:18;;;;;;;6.47;5.20;;;;;;;;;;5076897;28;20668;-71
2022/07/30 09:37:45;;;;;;;8.80;4.50;;;;;;;;;;5076882;28;20641;-70
2022/07/30 09:40:17;;;;;;;7.67;5.87;;;;;;;;;;5076663;28;20283;-70
2022/07/30 09:42:44;;;;;;;8.33;5.93;;;;;;;;;;5058752;28;20205;-70
2022/07/30 09:45:14;;;;;;;6.30;5.30;;;;;;;;;;5076905;28;20177;-70
2022/07/30 09:47:41;;;;;;;8.73;5.23;;;;;;;;;;5077017;28;20178;-71
2022/07/30 09:50:18;;;;;;;10.73;5.03;;;;;;;;;;5058682;28;20204;-70
2022/07/30 09:52:46;;;;;;;10.67;5.23;;;;;;;;;;5076783;28;20158;-70
2022/07/30 09:55:12;;;;;;;5.77;4.20;;;;;;;;;;5076851;28;20178;-70
2022/07/30 09:57:56;;;;;;;7.00;4.17;;;;;;;;;;5076629;28;20681;-71
2022/07/30 10:00:23;;;;;;;4.07;3.67;;;;;;;;;;5076651;28;20197;-70
2022/07/30 10:02:50;;;;;;;5.50;4.70;;;;;;;;;;5076331;28;20198;-70
2022/07/30 10:05:20;;;;;;;7.00;3.50;;;;;;;;;;5058869;28;20188;-71
2022/07/30 10:07:48;;;;;;;6.77;3.97;;;;;;;;;;5058375;28;20174;-70
2022/07/30 10:10:14;;;;;;;6.67;3.60;;;;;;;;;;5076465;28;20573;-70
2022/07/30 10:12:40;;;;;;;5.37;4.20;;;;;;;;;;5076663;28;20181;-71
2022/07/30 10:15:06;;;;;;;4.90;3.43;;;;;;;;;;5058396;28;20185;-71
2022/07/30 10:17:33;;;;;;;6.57;3.37;;;;;;;;;;5058165;28;20664;-70
2022/07/30 10:19:59;;;;;;;3.27;2.80;;;;;;;;;;5058248;28;20194;-70
2022/07/30 10:22:25;;;;;;;4.90;3.30;;;;;;;;;;5076594;28;20208;-71
2022/07/30 10:24:51;;;;;;;6.03;2.97;;;;;;;;;;5076015;28;20578;-70
2022/07/30 10:27:17;;;;;;;6.57;2.97;;;;;;;;;;5076141;28;20173;-70
2022/07/30 10:29:44;;;;;;;4.53;3.17;;;;;;;;;;5057970;28;20537;-70
2022/07/30 10:32:10;;;;;;;3.53;3.10;;;;;;;;;;5076270;28;20263;-70
2022/07/30 10:34:37;;;;;;;6.43;3.47;;;;;;;;;;5076139;28;20615;-70
2022/07/30 10:37:04;;;;;;;3.97;3.30;;;;;;;;;;5075801;28;20220;-70
2022/07/30 10:39:34;;;;;;;5.40;3.37;;;;;;;;;;5075173;28;20266;-71
2022/07/30 10:42:16;;;;;;;2.83;2.40;;;;;;;;;;5075760;28;20202;-70
2022/07/30 10:44:42;;;;;;;4.50;2.77;;;;;;;;;;5058108;28;20204;-70
2022/07/30 10:47:13;;;;;;;6.03;3.30;;;;;;;;;;5075790;28;20174;-70
2022/07/30 10:49:39;;;;;;;3.67;2.93;;;;;;;;;;5075866;28;20198;-70
2022/07/30 10:52:06;;;;;;;4.57;2.73;;;;;;;;;;5075741;28;20192;-70
2022/07/30 10:54:36;;;;;;;6.27;3.70;;;;;;;;;;5075773;28;20185;-69
2022/07/30 10:57:11;;;;;;;3.70;2.60;;;;;;;;;;5058132;28;20189;-70
2022/07/30 10:59:49;;;;;;;5.10;4.00;;;;;;;;;;5058480;28;20740;-70
2022/07/30 11:02:16;;;;;;;6.10;4.10;;;;;;;;;;5057884;28;20213;-70
2022/07/30 11:04:42;;;;;;;7.17;4.80;;;;;;;;;;5057931;28;20200;-70
2022/07/30 11:07:23;;;;;;;8.40;4.93;;;;;;;;;;5057805;28;20189;-69
2022/07/30 11:09:50;;;;;;;10.83;4.80;;;;;;;;;;5076008;28;20194;-69
2022/07/30 11:12:36;;;;;;;6.70;3.77;;;;;;;;;;5057371;28;20188;-69
2022/07/30 11:15:02;;;;;;;4.93;3.70;;;;;;;;;;5075072;28;20186;-69
2022/07/30 11:17:48;;;;;;;4.40;3.10;;;;;;;;;;5057412;28;20645;-69
2022/07/30 11:20:14;;;;;;;5.13;3.63;;;;;;;;;;5075594;28;20216;-69
2022/07/30 11:22:43;;;;;;;6.83;3.90;;;;;;;;;;5057439;28;20205;-69
2022/07/30 11:25:29;;;;;;;5.37;4.00;;;;;;;;;;5075317;28;20599;-68
2022/07/30 11:27:56;;;;;;;7.43;4.53;;;;;;;;;;5050791;28;20603;-69
2022/07/30 11:30:22;;;;;;;8.30;4.43;;;;;;;;;;5057208;28;20202;-68
2022/07/30 11:32:49;;;;;;;5.00;4.50;;;;;;;;;;5075257;28;20228;-69
2022/07/30 11:35:23;;;;;;;5.90;4.50;;;;;;;;;;5057367;28;20184;-68
2022/07/30 11:38:02;;;;;;;8.00;3.43;;;;;;;;;;5057373;28;20213;-69
2022/07/30 11:40:30;;;;;;;5.60;3.53;;;;;;;;;;5056837;28;20221;-69
2022/07/30 11:43:16;;;;;;;6.73;3.70;;;;;;;;;;5074806;28;20206;-69
2022/07/30 11:45:42;;;;;;;4.33;3.20;;;;;;;;;;5074724;28;20178;-69
2022/07/30 11:48:10;;;;;;;3.70;3.20;;;;;;;;;;5056764;28;20216;-68
2022/07/30 11:50:36;;;;;;;3.17;2.87;;;;;;;;;;5074624;28;20193;-68
2022/07/30 11:53:06;;;;;;;3.27;2.83;;;;;;;;;;5073999;28;20189;-68
2022/07/30 11:55:34;;;;;;;3.07;2.63;;;;;;;;;;5074859;28;20577;-68
2022/07/30 11:58:01;;;;;;;4.50;3.87;;;;;;;;;;5074442;28;20177;-67
2022/07/30 12:00:34;;;;;;;4.90;3.10;;;;;;;;;;5056559;28;20784;-69
2022/07/30 12:03:06;;;;;;;6.07;3.40;;;;;;;;;;5074361;28;20209;-69
2022/07/30 12:05:32;;;;;;;3.23;2.93;;;;;;;;;;5056364;28;20189;-68
2022/07/30 12:07:58;;;;;;;3.93;3.07;;;;;;;;;;5074175;28;20212;-69
2022/07/30 12:10:25;;;;;;;3.67;2.77;;;;;;;;;;5074362;28;20194;-69
2022/07/30 12:12:51;;;;;;;3.00;2.70;;;;;;;;;;5075064;28;20211;-69
2022/07/30 12:15:33;;;;;;;3.53;2.87;;;;;;;;;;5074201;28;20178;-68
2022/07/30 12:18:02;;;;;;;3.40;3.07;;;;;;;;;;5074167;28;20176;-69
2022/07/30 12:20:29;;;;;;;3.70;3.10;;;;;;;;;;5073908;28;20228;-68
2022/07/30 12:22:55;;;;;;;11.70;3.53;;;;;;;;;;5055868;28;20197;-68
2022/07/30 12:25:21;;;;;;;8.20;3.10;;;;;;;;;;5074036;28;20166;-69
2022/07/30 12:27:48;;;;;;;3.47;3.17;;;;;;;;;;5074036;28;20182;-69
2022/07/30 12:30:15;;;;;;;3.93;3.03;;;;;;;;;;5073962;28;20201;-70
2022/07/30 12:32:41;;;;;;;5.33;3.70;;;;;;;;;;5074102;28;20185;-69
2022/07/30 12:35:07;;;;;;;6.13;3.70;;;;;;;;;;5089789;22;20596;-70
2022/07/30 12:37:33;;;;;;;5.80;2.97;;;;;;;;;;5074530;28;20272;-68
2022/07/30 12:40:06;;;;;;;5.13;3.27;;;;;;;;;;5056581;28;20213;-68
2022/07/30 12:42:33;;;;;;;4.60;3.70;;;;;;;;;;5074656;28;20217;-68
2022/07/30 12:44:58;;;;;;;5.67;3.23;;;;;;;;;;5056790;28;20201;-68
2022/07/30 12:47:25;;;;;;;5.03;3.33;;;;;;;;;;5057629;28;20721;-69
2022/07/30 12:49:52;;;;;;;2.93;2.53;;;;;;;;;;5076869;28;20181;-68
2022/07/30 12:52:25;;;;;;;6.67;3.13;;;;;;;;;;5076710;28;20548;-68
2022/07/30 12:54:58;;;;;;;4.73;3.10;;;;;;;;;;5074455;28;20201;-68
2022/07/30 12:57:24;;;;;;;3.93;3.53;;;;;;;;;;5074867;28;20189;-68
2022/07/30 13:00:02;;;;;;;4.43;2.90;;;;;;;;;;5056460;28;20190;-68
2022/07/30 13:02:35;;;;;;;6.73;3.73;;;;;;;;;;5057207;28;20201;-69
2022/07/30 13:05:01;;;;;;;4.53;2.90;;;;;;;;;;5073672;28;20197;-69
2022/07/30 13:07:30;;;;;;;3.13;2.80;;;;;;;;;;5073829;28;20278;-69
2022/07/30 13:10:06;;;;;;;3.27;2.60;;;;;;;;;;5073331;28;20174;-69
2022/07/30 13:12:32;;;;;;;3.90;2.70;;;;;;;;;;5074089;28;20174;-68
2022/07/30 13:14:58;;;;;;;7.37;2.50;;;;;;;;;;5056411;28;20557;-68
2022/07/30 13:17:24;;;;;;;5.50;2.70;;;;;;;;;;5075436;28;20247;-68
2022/07/30 13:19:50;;;;;;;3.50;2.70;;;;;;;;;;5074306;28;20182;-69
2022/07/30 13:22:16;;;;;;;4.20;2.90;;;;;;;;;;5073976;28;20226;-67
2022/07/30 13:24:42;;;;;;;3.60;2.90;;;;;;;;;;5073670;28;20638;-69
2022/07/30 13:27:08;;;;;;;5.57;2.50;;;;;;;;;;5073584;28;20177;-69
2022/07/30 13:29:34;;;;;;;2.77;2.50;;;;;;;;;;5073651;28;20174;-69
2022/07/30 13:32:00;;;;;;;5.87;2.97;;;;;;;;;;5073994;28;20657;-69
2022/07/30 13:34:26;;;;;;;3.07;2.60;;;;;;;;;;5074441;28;20174;-69
2022/07/30 13:36:52;;;;;;;3.37;2.20;;;;;;;;;;5074283;28;20415;-69
2022/07/30 13:39:18;;;;;;;3.07;2.20;;;;;;;;;;5056212;28;20657;-69
2022/07/30 13:41:44;;;;;;;2.20;2.00;;;;;;;;;;5055134;28;20573;-69
2022/07/30 13:44:10;;;;;;;4.43;2.17;;;;;;;;;;5055157;28;20323;-68
2022/07/30 13:46:36;;;;;;;4.27;2.20;;;;;;;;;;5073148;28;20244;-69
2022/07/30 13:49:03;;;;;;;3.57;2.30;;;;;;;;;;5055433;28;20185;-69
2022/07/30 13:51:29;;;;;;;2.40;2.20;;;;;;;;;;5055344;28;20186;-69
2022/07/30 13:53:55;;;;;;;5.00;2.40;;;;;;;;;;5055259;28;20311;-70
2022/07/30 13:56:21;;;;;;;5.33;2.70;;;;;;;;;;5055142;28;20211;-70
2022/07/30 13:58:47;;;;;;;3.47;2.10;;;;;;;;;;5055159;28;20185;-69
2022/07/30 14:01:14;;;;;;;2.73;2.00;;;;;;;;;;5055313;28;20206;-70
2022/07/30 14:03:40;;;;;;;3.25;2.40;;;;;;;;;;5055000;28;20174;-69
2022/07/30 14:06:06;;;;;;;3.58;2.47;;;;;;;;;;5053779;28;20372;-69
2022/07/30 14:08:32;;;;;;;3.85;2.47;;;;;;;;;;5053964;28;20416;-70
2022/07/30 14:10:58;;;;;;;2.75;2.22;;;;;;;;;;5055065;28;20668;-69
2022/07/30 14:13:24;;;;;;;4.40;2.10;;;;;;;;;;5074707;28;20174;-69
2022/07/30 14:15:50;;;;;;;3.55;2.00;;;;;;;;;;5059426;28;20550;-69
2022/07/30 14:18:16;;;;;;;2.50;1.90;;;;;;;;;;5079199;28;20174;-69
2022/07/30 14:20:42;;;;;;;2.30;2.10;;;;;;;;;;5060849;28;20181;-69
2022/07/30 14:23:08;;;;;;;2.97;2.30;;;;;;;;;;5078060;28;20212;-69
2022/07/30 14:25:34;;;;;;;2.87;2.10;;;;;;;;;;5078628;28;20254;-69
2022/07/30 14:28:00;;;;;;;3.42;2.60;;;;;;;;;;5078378;28;20186;-69
2022/07/30 14:30:27;;;;;;;4.07;2.70;;;;;;;;;;5077857;28;20178;-69
2022/07/30 14:32:52;;;;;;;7.40;2.30;;;;;;;;;;5076251;28;20178;-69